Hauptseite
METAR-TAF:

METAR-TAF

Flughäfen :

La Chaux-de-Fonds, Schweiz

Flugplatz Les Eplatures

Breite: 47-05-03N, Länge: 006-47-37E, Höhe: 1027 m

Beobachtung

Neuester Wetterbericht von vor 8 Minuten, um 11:50 UTC
Wind 3 kt aus unterschiedlichen Richtungen
Temperatur 17°C
Luftfeuchtigkeit 55%
Luftdruck 1025 hPa
Sichtweite 10 km oder mehr
Durchbrochene Bewölkung in der Höhe von 4000 ft

METAR: LSGC 211150Z VRB03KT 9999 BKN040 17/08 Q1025

Zeit: 13:58 (11:58 UTC)

Prognose

Neuester Wetterbericht von vor 33 Minuten, um 11:25 UTC
Gültige Prognose vom 21 um 12 UTC bis 21 um 21 UTC
Wind 5 kt aus Ost/Nordost
Sichtweite 10 km oder mehr
Leicht bewölkt in der Höhe von 4500 ft
Aufgelockert bewölkt in der Höhe von 7000 ft

TAF: LSGC 211125Z 2112/2121 06005KT 9999 FEW045 SCT070

Wetterbeobachtungen und Prognosen von mehr als 4000 Flughäfen (METAR und TAF Bericht).

Die verfügbaren Stationen werden durch gelbe und rote Markierungen auf der Karte dargestellt.

Führen Sie die Maus auf sie, um den Namen der Station zu sehen.

Darauf klicken, um die Beobachtung von Wetterbeobachtungen und Prognosen zu sehen.

Um die Karte zu ändern : klicken Sie auf den grünen Tasten mit einem schwarzen Kreuz Zum Vergrößern, auf den grünen Button mit einem Gedankenstrich zu verkleinern, oder auf die grünen Pfeile für benachbarte Karten.


METAR-TAF: